Time;durP1;ratioP1;P1;durP2;ratioP2;P2;SDS_P1;SDS_P2;PMS_P1;PMS_P2;Temp;Humidity;BMP_temperature;BMP_pressure;BME280_temperature;BME280_humidity;BME280_pressure;Samples;Min_cycle;Max_cycle;Signal;HPM_P1;HPM_P2
2023/04/01 00:01:39;;;;;;;6.18;2.55;;;;;;;8.78;100.00;99081.00;5072648;28;20032;-55
2023/04/01 00:04:04;;;;;;;6.78;2.53;;;;;;;8.78;100.00;99088.13;5065402;28;20083;-55
2023/04/01 00:06:30;;;;;;;8.07;2.47;;;;;;;8.78;100.00;99088.97;5072117;28;20548;-55
2023/04/01 00:08:55;;;;;;;4.53;2.30;;;;;;;8.78;100.00;99090.78;5072743;28;20021;-54
2023/04/01 00:11:21;;;;;;;7.40;2.35;;;;;;;8.79;100.00;99089.78;5059065;28;20032;-55
2023/04/01 00:13:47;;;;;;;8.27;2.70;;;;;;;8.78;100.00;99094.25;5072886;28;20031;-55
2023/04/01 00:16:13;;;;;;;7.40;2.83;;;;;;;8.78;100.00;99094.25;5064140;28;20029;-56
2023/04/01 00:18:38;;;;;;;4.97;2.35;;;;;;;8.78;100.00;99093.44;5072897;28;20036;-55
2023/04/01 00:21:04;;;;;;;4.53;2.25;;;;;;;8.78;100.00;99096.91;5072083;28;20112;-56
2023/04/01 00:23:30;;;;;;;8.18;2.72;;;;;;;8.78;100.00;99102.19;5071942;28;20021;-55
2023/04/01 00:25:55;;;;;;;6.10;2.20;;;;;;;8.78;100.00;99101.38;5071031;28;20030;-55
2023/04/01 00:28:20;;;;;;;9.18;2.50;;;;;;;8.78;100.00;99090.78;5072659;28;20108;-55
2023/04/01 00:30:48;;;;;;;6.25;2.47;;;;;;;8.77;100.00;99097.88;5071892;28;20026;-56
2023/04/01 00:33:13;;;;;;;6.65;2.42;;;;;;;8.77;100.00;99099.69;5071451;28;20028;-55
2023/04/01 00:35:39;;;;;;;4.75;2.38;;;;;;;8.77;100.00;99103.16;5071861;28;20043;-55
2023/04/01 00:38:05;;;;;;;6.55;2.53;;;;;;;8.77;100.00;99097.88;5070754;28;20024;-55
2023/04/01 00:40:35;;;;;;;6.47;2.38;;;;;;;8.77;100.00;99113.75;5071765;28;20032;-53
2023/04/01 00:43:00;;;;;;;4.68;2.38;;;;;;;8.78;100.00;99112.78;5070882;28;20031;-55
2023/04/01 00:45:28;;;;;;;4.68;2.80;;;;;;;8.77;100.00;99112.94;5071876;28;20028;-55
2023/04/01 00:47:54;;;;;;;4.68;2.60;;;;;;;8.78;100.00;99118.06;5070548;28;20032;-55
2023/04/01 00:50:21;;;;;;;4.80;2.60;;;;;;;8.77;100.00;99112.94;5070645;28;20021;-55
2023/04/01 00:52:46;;;;;;;7.47;3.20;;;;;;;8.76;100.00;99114.75;5071720;28;20117;-55
2023/04/01 00:55:14;;;;;;;4.43;2.60;;;;;;;8.76;100.00;99119.19;5061053;28;20071;-55
2023/04/01 00:57:42;;;;;;;4.53;2.70;;;;;;;8.77;100.00;99127.00;5058723;28;20035;-55
2023/04/01 01:00:11;;;;;;;4.93;2.63;;;;;;;8.79;100.00;99126.84;5071412;28;20024;-55
2023/04/01 01:02:38;;;;;;;5.05;2.75;;;;;;;8.76;100.00;99128.00;5065552;28;20040;-56
2023/04/01 01:05:04;;;;;;;3.88;3.03;;;;;;;8.78;100.00;99126.00;5072064;28;20016;-55
2023/04/01 01:07:42;;;;;;;4.18;2.83;;;;;;;8.78;100.00;99133.13;5071541;28;20425;-53
2023/04/01 01:10:11;;;;;;;5.57;2.95;;;;;;;8.78;100.00;99135.78;5062275;28;20500;-55
2023/04/01 01:12:44;;;;;;;3.92;2.90;;;;;;;8.78;100.00;99131.31;5071603;28;20032;-55
2023/04/01 01:15:25;;;;;;;5.20;3.00;;;;;;;8.78;100.00;99138.44;5054941;28;20025;-56
2023/04/01 01:18:09;;;;;;;5.47;3.08;;;;;;;8.76;100.00;99133.28;5056664;28;20080;-55
2023/04/01 01:21:03;;;;;;;4.00;2.97;;;;;;;8.77;100.00;99134.09;5066716;28;20043;-54
2023/04/01 01:23:46;;;;;;;4.72;3.20;;;;;;;8.76;100.00;99143.00;5057189;28;20075;-55
2023/04/01 01:26:39;;;;;;;3.20;2.90;;;;;;;8.77;100.00;99140.22;5071669;28;20451;-56
2023/04/01 01:29:49;;;;;;;5.55;3.67;;;;;;;8.76;100.00;99130.63;5060788;28;20025;-56
2023/04/01 01:32:26;;;;;;;4.80;3.75;;;;;;;8.76;100.00;99138.56;5061531;28;20039;-56
2023/04/01 01:35:07;;;;;;;5.70;5.05;;;;;;;8.74;100.00;99143.16;5066814;28;20465;-55
2023/04/01 01:37:33;;;;;;;6.15;5.20;;;;;;;8.76;100.00;99145.66;5064552;28;20028;-55
2023/04/01 01:40:03;;;;;;;6.65;6.00;;;;;;;8.74;100.00;99143.16;5071353;28;20025;-56
2023/04/01 01:42:31;;;;;;;8.38;7.63;;;;;;;8.75;100.00;99144.84;5070004;28;20048;-54
2023/04/01 01:44:59;;;;;;;8.80;8.00;;;;;;;8.75;100.00;99155.44;5071050;28;20031;-52
2023/04/01 01:47:25;;;;;;;8.98;8.07;;;;;;;8.76;100.00;99157.09;5068532;28;20078;-54
2023/04/01 01:49:53;;;;;;;8.70;7.97;;;;;;;8.74;100.00;99156.41;5061953;28;20043;-56
2023/04/01 01:52:18;;;;;;;8.27;7.57;;;;;;;8.76;100.00;99153.59;5071136;28;20055;-55
2023/04/01 01:54:51;;;;;;;8.25;7.50;;;;;;;8.75;100.00;99159.91;5063694;28;20044;-56
2023/04/01 01:57:20;;;;;;;8.63;6.88;;;;;;;8.74;100.00;99155.56;5069671;28;20037;-53
2023/04/01 01:59:47;;;;;;;7.50;6.80;;;;;;;8.74;100.00;99161.69;5071476;28;20025;-56
2023/04/01 02:02:14;;;;;;;8.57;7.00;;;;;;;8.72;100.00;99162.84;5067875;28;20295;-52
2023/04/01 02:04:43;;;;;;;7.38;6.57;;;;;;;8.70;100.00;99170.91;5063450;28;20029;-55
2023/04/01 02:07:14;;;;;;;8.20;7.50;;;;;;;8.69;100.00;99169.25;5070799;28;20013;-54
2023/04/01 02:09:39;;;;;;;8.10;7.30;;;;;;;8.69;100.00;99178.03;5071321;28;20029;-55
2023/04/01 02:12:10;;;;;;;8.90;8.00;;;;;;;8.68;100.00;99178.19;5058430;28;20068;-54
2023/04/01 02:14:48;;;;;;;11.73;8.80;;;;;;;8.69;100.00;99177.19;5071334;28;20051;-52
2023/04/01 02:17:17;;;;;;;14.07;10.13;;;;;;;8.65;100.00;99174.00;5059999;28;20033;-55
2023/04/01 02:19:51;;;;;;;10.93;9.65;;;;;;;8.67;100.00;99187.91;5070338;28;20032;-53
2023/04/01 02:22:29;;;;;;;14.88;10.73;;;;;;;8.65;100.00;99184.59;5052667;28;20080;-53
2023/04/01 02:25:00;;;;;;;13.80;10.93;;;;;;;8.64;100.00;99176.78;5066604;28;20115;-54
2023/04/01 02:27:26;;;;;;;13.88;11.23;;;;;;;8.64;100.00;99177.66;5070949;28;20366;-53
2023/04/01 02:29:52;;;;;;;15.40;11.25;;;;;;;8.62;100.00;99184.88;5070770;28;20107;-56
2023/04/01 02:32:20;;;;;;;14.93;10.30;;;;;;;8.63;100.00;99191.84;5070881;28;20028;-52
2023/04/01 02:34:47;;;;;;;13.95;11.60;;;;;;;8.61;100.00;99187.66;5065723;28;20485;-53
2023/04/01 02:37:13;;;;;;;17.77;12.73;;;;;;;8.60;100.00;99186.84;5070914;28;20020;-55
2023/04/01 02:39:39;;;;;;;16.50;13.20;;;;;;;8.59;100.00;99195.75;5070781;28;20385;-55
2023/04/01 02:42:05;;;;;;;17.70;13.70;;;;;;;8.60;100.00;99184.19;5063558;28;20025;-56
2023/04/01 02:44:30;;;;;;;17.13;13.50;;;;;;;8.60;100.00;99184.19;5070702;28;20401;-53
2023/04/01 02:46:56;;;;;;;17.02;13.40;;;;;;;8.59;100.00;99198.38;5073866;28;20047;-55
2023/04/01 02:49:21;;;;;;;19.05;14.57;;;;;;;8.58;100.00;99191.44;5061462;28;20056;-56
2023/04/01 02:51:46;;;;;;;16.38;14.60;;;;;;;8.58;100.00;99194.09;5069178;28;20409;-55
2023/04/01 02:54:12;;;;;;;18.33;14.40;;;;;;;8.57;100.00;99191.59;5073742;28;20111;-56
2023/04/01 02:56:37;;;;;;;17.63;13.50;;;;;;;8.57;100.00;99196.88;5074217;28;20366;-56
2023/04/01 02:59:03;;;;;;;18.70;13.63;;;;;;;8.54;100.00;99198.00;5071388;28;20470;-56
2023/04/01 03:01:28;;;;;;;16.92;13.73;;;;;;;8.55;100.00;99198.84;5073466;28;20500;-56
2023/04/01 03:03:53;;;;;;;19.08;13.30;;;;;;;8.55;100.00;99207.63;5073966;28;20108;-56
2023/04/01 03:06:18;;;;;;;16.17;12.57;;;;;;;8.52;100.00;99206.06;5070169;28;20036;-56
2023/04/01 03:08:44;;;;;;;15.88;12.85;;;;;;;8.52;100.00;99211.38;5073211;28;20020;-54
2023/04/01 03:11:10;;;;;;;18.38;13.45;;;;;;;8.53;100.00;99206.94;5072773;28;20115;-55
2023/04/01 03:13:35;;;;;;;18.48;13.90;;;;;;;8.50;100.00;99205.41;5073841;28;20065;-55
2023/04/01 03:16:01;;;;;;;18.80;13.02;;;;;;;8.50;100.00;99209.84;5073813;28;20516;-55
2023/04/01 03:18:26;;;;;;;15.32;13.02;;;;;;;8.50;100.00;99221.28;5071733;28;20116;-56
2023/04/01 03:20:51;;;;;;;18.40;12.85;;;;;;;8.48;100.00;99217.94;5073757;28;20020;-55
2023/04/01 03:23:19;;;;;;;16.15;12.40;;;;;;;8.47;100.00;99216.25;5058892;28;20500;-55
2023/04/01 03:25:44;;;;;;;15.98;13.68;;;;;;;8.48;100.00;99217.94;5074048;28;20031;-56
2023/04/01 03:28:10;;;;;;;15.60;13.27;;;;;;;8.47;100.00;99223.38;5072212;28;20024;-55
2023/04/01 03:30:35;;;;;;;14.32;12.68;;;;;;;8.47;100.00;99223.38;5073722;28;20017;-55
2023/04/01 03:33:01;;;;;;;15.50;11.93;;;;;;;8.47;100.00;99223.38;5073224;28;20081;-56
2023/04/01 03:35:27;;;;;;;17.10;12.27;;;;;;;8.45;100.00;99228.81;5073579;28;20120;-56
2023/04/01 03:37:53;;;;;;;16.73;12.32;;;;;;;8.46;100.00;99232.28;5069435;28;20107;-55
2023/04/01 03:40:19;;;;;;;14.98;12.18;;;;;;;8.46;100.00;99233.13;5073447;28;20381;-56
2023/04/01 03:42:44;;;;;;;16.30;12.30;;;;;;;8.45;100.00;99233.28;5073056;28;20043;-56
2023/04/01 03:45:11;;;;;;;13.63;12.10;;;;;;;8.45;100.00;99239.38;5073349;28;20474;-56
2023/04/01 03:47:37;;;;;;;13.60;11.18;;;;;;;8.45;100.00;99231.44;5071160;28;20028;-55
2023/04/01 03:50:02;;;;;;;13.05;11.65;;;;;;;8.44;100.00;99240.38;5073246;28;20027;-54
2023/04/01 03:52:28;;;;;;;12.93;11.18;;;;;;;8.44;100.00;99237.75;5075173;28;20031;-55
2023/04/01 03:54:53;;;;;;;11.70;10.13;;;;;;;8.44;100.00;99243.03;5071544;28;20111;-54
2023/04/01 03:57:18;;;;;;;11.65;9.38;;;;;;;8.42;100.00;99244.09;5069718;28;20103;-54
2023/04/01 03:59:43;;;;;;;9.85;8.85;;;;;;;8.41;100.00;99245.94;5068047;28;20047;-54
2023/04/01 04:02:09;;;;;;;11.20;9.90;;;;;;;8.42;100.00;99246.75;5070216;28;20032;-54
2023/04/01 04:04:34;;;;;;;11.30;8.60;;;;;;;8.41;100.00;99248.56;5069275;28;20057;-53
2023/04/01 04:06:59;;;;;;;12.75;9.93;;;;;;;8.40;100.00;99248.72;5070147;28;20453;-55
2023/04/01 04:09:25;;;;;;;9.32;8.27;;;;;;;8.40;100.00;99252.19;5072863;28;20024;-55
2023/04/01 04:11:50;;;;;;;9.45;8.55;;;;;;;8.40;100.00;99260.13;5072568;28;20020;-55
2023/04/01 04:14:16;;;;;;;9.80;8.82;;;;;;;8.40;100.00;99254.81;5072552;28;20032;-52
2023/04/01 04:16:41;;;;;;;9.05;8.25;;;;;;;8.40;100.00;99259.28;5072218;28;20465;-51
2023/04/01 04:19:07;;;;;;;9.75;7.80;;;;;;;8.40;100.00;99269.88;5063794;28;20078;-53
2023/04/01 04:21:32;;;;;;;9.23;7.60;;;;;;;8.38;100.00;99261.25;5069063;28;20063;-51
2023/04/01 04:24:01;;;;;;;9.55;7.85;;;;;;;8.37;100.00;99264.88;5062851;28;20063;-50
2023/04/01 04:26:26;;;;;;;8.90;8.00;;;;;;;8.37;100.00;99270.16;5068473;28;20032;-52
2023/04/01 04:28:53;;;;;;;8.32;7.25;;;;;;;8.37;100.00;99270.16;5072478;28;20047;-52
2023/04/01 04:31:20;;;;;;;9.45;7.22;;;;;;;8.36;100.00;99279.06;5069335;28;20074;-52
2023/04/01 04:33:46;;;;;;;8.13;7.32;;;;;;;8.37;100.00;99278.09;5071600;28;20032;-53
2023/04/01 04:36:11;;;;;;;6.90;6.30;;;;;;;8.36;100.00;99279.91;5068969;28;20012;-52
2023/04/01 04:38:36;;;;;;;7.72;6.43;;;;;;;8.36;100.00;99281.69;5063180;28;20033;-52
2023/04/01 04:41:01;;;;;;;6.18;5.57;;;;;;;8.34;100.00;99277.41;5069215;28;20027;-52
2023/04/01 04:43:27;;;;;;;6.72;6.00;;;;;;;8.33;100.00;99281.03;5062764;28;20052;-53
2023/04/01 04:45:52;;;;;;;5.93;5.43;;;;;;;8.33;100.00;99293.41;5064137;28;20020;-55
2023/04/01 04:48:18;;;;;;;5.68;5.18;;;;;;;8.30;100.00;99286.59;5071706;28;20036;-52
2023/04/01 04:50:44;;;;;;;5.68;5.10;;;;;;;8.29;100.00;99284.94;5071806;28;20416;-56
2023/04/01 04:53:13;;;;;;;5.55;4.90;;;;;;;8.27;100.00;99297.44;5070494;28;20032;-54
2023/04/01 04:55:47;;;;;;;6.10;5.30;;;;;;;8.27;100.00;99293.97;5071519;28;20431;-52
2023/04/01 04:58:12;;;;;;;5.60;5.00;;;;;;;8.26;100.00;99310.81;5071939;28;20024;-52
2023/04/01 05:00:38;;;;;;;5.57;5.18;;;;;;;8.24;100.00;99310.94;5059258;28;20073;-54
2023/04/01 05:03:03;;;;;;;6.15;5.55;;;;;;;8.23;100.00;99305.81;5070440;28;20040;-55
2023/04/01 05:05:28;;;;;;;5.85;5.28;;;;;;;8.22;100.00;99318.19;5070612;28;20017;-54
2023/04/01 05:07:54;;;;;;;5.78;4.70;;;;;;;8.21;100.00;99320.97;5065415;28;20029;-52
2023/04/01 05:10:20;;;;;;;5.53;4.93;;;;;;;8.21;100.00;99318.34;5070146;28;20055;-54
2023/04/01 05:12:46;;;;;;;5.07;4.60;;;;;;;8.20;100.00;99311.38;5071510;28;20529;-53
2023/04/01 05:15:11;;;;;;;5.07;4.57;;;;;;;8.19;100.00;99315.81;5071336;28;20158;-55
2023/04/01 05:17:36;;;;;;;5.07;4.60;;;;;;;8.18;100.00;99316.81;5065688;28;20064;-52
2023/04/01 05:20:02;;;;;;;4.40;4.07;;;;;;;8.19;100.00;99322.94;5069755;28;20028;-55
2023/04/01 05:22:27;;;;;;;5.07;4.32;;;;;;;8.18;100.00;99327.41;5060718;28;20139;-55
2023/04/01 05:24:53;;;;;;;4.75;4.35;;;;;;;8.17;100.00;99331.00;5069372;28;20016;-55
2023/04/01 05:27:18;;;;;;;4.60;4.20;;;;;;;8.17;100.00;99333.66;5071584;28;20033;-55
2023/04/01 05:29:44;;;;;;;4.55;4.18;;;;;;;8.16;100.00;99337.28;5071266;28;20016;-56
2023/04/01 05:32:09;;;;;;;4.63;4.22;;;;;;;8.15;100.00;99344.38;5055338;28;20056;-55
2023/04/01 05:34:34;;;;;;;6.18;4.38;;;;;;;8.15;100.00;99339.06;5068839;28;20489;-56
2023/04/01 05:36:59;;;;;;;5.07;4.68;;;;;;;8.15;100.00;99347.00;5071754;28;20115;-52
2023/04/01 05:39:25;;;;;;;4.75;4.35;;;;;;;8.17;100.00;99352.16;5071202;28;20028;-54
2023/04/01 05:41:50;;;;;;;6.80;4.93;;;;;;;8.15;100.00;99354.13;5063507;28;20466;-52
2023/04/01 05:44:15;;;;;;;4.95;4.55;;;;;;;8.15;100.00;99356.75;5069820;28;20032;-56
2023/04/01 05:46:41;;;;;;;5.85;5.25;;;;;;;8.16;100.00;99361.09;5071442;28;20090;-54
2023/04/01 05:49:06;;;;;;;5.65;5.13;;;;;;;8.16;100.00;99369.03;5069401;28;20021;-55
2023/04/01 05:51:32;;;;;;;6.57;5.13;;;;;;;8.14;100.00;99374.44;5070124;28;20060;-54
2023/04/01 05:53:57;;;;;;;6.38;5.75;;;;;;;8.15;100.00;99377.91;5070921;28;20112;-53
2023/04/01 05:56:22;;;;;;;6.68;5.88;;;;;;;8.15;100.00;99385.84;5059091;28;20470;-56
2023/04/01 05:58:52;;;;;;;6.75;6.10;;;;;;;8.15;100.00;99386.69;5059066;28;20025;-57
2023/04/01 06:01:18;;;;;;;7.00;6.30;;;;;;;8.13;100.00;99383.34;5073174;28;20056;-57
2023/04/01 06:03:44;;;;;;;8.43;6.95;;;;;;;8.15;100.00;99386.69;5059548;28;20032;-57
2023/04/01 06:06:24;;;;;;;8.20;6.82;;;;;;;8.18;100.00;99397.94;5070867;28;20050;-57
2023/04/01 06:08:50;;;;;;;8.02;6.80;;;;;;;8.16;100.00;99406.06;5063318;28;20370;-57
2023/04/01 06:11:40;;;;;;;8.55;6.78;;;;;;;8.17;100.00;99405.06;5061352;28;20035;-57
2023/04/01 06:14:19;;;;;;;8.70;7.22;;;;;;;8.18;100.00;99412.03;5069118;28;20044;-57
2023/04/01 06:16:56;;;;;;;7.53;6.82;;;;;;;8.19;100.00;99416.31;5055785;28;20043;-56
2023/04/01 06:20:01;;;;;;;9.27;6.78;;;;;;;8.20;100.00;99423.31;5065105;28;20045;-57
2023/04/01 06:23:01;;;;;;;7.40;6.63;;;;;;;8.21;100.00;99424.13;5069886;28;20127;-57
2023/04/01 06:25:38;;;;;;;;;;;;;;;8.28;100.00;99433.22;5067361;28;20431;-57
2023/04/01 06:28:32;;;;;;;8.00;7.05;;;;;;;8.23;100.00;99438.91;5065440;28;19920;-57
2023/04/01 06:31:12;;;;;;;8.13;7.30;;;;;;;8.25;100.00;99442.25;5075269;28;20057;-58
2023/04/01 06:34:13;;;;;;;9.73;7.90;;;;;;;8.27;100.00;99440.28;5062903;28;20058;-58
2023/04/01 06:36:50;;;;;;;12.18;8.07;;;;;;;8.26;100.00;99443.06;5066023;28;20442;-56
2023/04/01 06:39:27;;;;;;;9.80;8.80;;;;;;;8.27;100.00;99437.63;5068160;28;20033;-57
2023/04/01 06:42:04;;;;;;;11.88;9.48;;;;;;;8.28;100.00;99449.06;5066604;28;20048;-55
2023/04/01 06:44:51;;;;;;;10.95;9.55;;;;;;;8.30;100.00;99447.94;5071018;28;20486;-57
2023/04/01 06:47:50;;;;;;;12.32;10.70;;;;;;;8.32;100.00;99456.56;5068033;28;20127;-57
2023/04/01 06:50:18;;;;;;;13.93;11.23;;;;;;;8.33;100.00;99460.09;5064271;28;20492;-57
2023/04/01 06:53:05;;;;;;;13.15;10.70;;;;;;;8.37;100.00;99464.09;5064910;28;20038;-57
2023/04/01 06:55:41;;;;;;;15.30;11.52;;;;;;;8.38;100.00;99462.31;5067154;28;20024;-57
2023/04/01 06:58:21;;;;;;;14.63;11.80;;;;;;;8.40;100.00;99471.78;5064713;28;20190;-58
2023/04/01 07:00:51;;;;;;;15.18;13.05;;;;;;;8.42;100.00;99475.13;5064694;28;20500;-58
2023/04/01 07:03:53;;;;;;;17.05;13.38;;;;;;;8.46;100.00;99481.84;5068914;28;20055;-58
2023/04/01 07:06:30;;;;;;;18.25;14.52;;;;;;;8.48;100.00;99476.44;5071093;28;20534;-57
2023/04/01 07:09:02;;;;;;;17.67;14.20;;;;;;;8.50;100.00;99483.22;5059437;28;20032;-57
2023/04/01 07:11:34;;;;;;;18.63;16.00;;;;;;;8.54;100.00;99483.78;5070935;28;20087;-57
2023/04/01 07:14:04;;;;;;;18.52;16.10;;;;;;;8.58;100.00;99487.03;5069615;28;20028;-57
2023/04/01 07:16:53;;;;;;;21.95;18.05;;;;;;;8.60;100.00;99485.06;5065684;28;20032;-57
2023/04/01 07:19:50;;;;;;;19.10;17.10;;;;;;;8.65;100.00;99494.25;5067331;28;20474;-57
2023/04/01 07:22:15;;;;;;;21.88;17.27;;;;;;;8.70;100.00;99496.50;5057901;28;20099;-59
2023/04/01 07:24:44;;;;;;;23.63;19.27;;;;;;;8.72;100.00;99491.88;5066645;28;20040;-57
2023/04/01 07:27:11;;;;;;;24.65;18.23;;;;;;;8.74;100.00;99503.16;5066522;28;20486;-57
2023/04/01 07:29:36;;;;;;;24.73;19.20;;;;;;;8.76;100.00;99509.19;5069821;28;20115;-56
2023/04/01 07:32:32;;;;;;;25.15;18.80;;;;;;;8.79;100.00;99516.00;5062294;28;20771;-57
2023/04/01 07:35:06;;;;;;;23.17;18.30;;;;;;;8.79;100.00;99521.28;5062523;28;20044;-57
2023/04/01 07:37:47;;;;;;;26.45;17.92;;;;;;;8.80;100.00;99521.16;5070928;28;20056;-57
2023/04/01 07:40:21;;;;;;;23.75;18.58;;;;;;;8.82;100.00;99523.66;5063252;28;20543;-57
2023/04/01 07:43:13;;;;;;;23.42;17.98;;;;;;;8.85;100.00;99531.34;5059617;28;20127;-55
2023/04/01 07:45:54;;;;;;;25.77;18.83;;;;;;;8.87;100.00;99530.19;5071036;28;20033;-57
2023/04/01 07:48:37;;;;;;;26.25;19.27;;;;;;;8.87;100.00;99532.03;5068737;28;20524;-56
2023/04/01 07:51:19;;;;;;;24.92;19.30;;;;;;;8.91;100.00;99537.88;5071102;28;20035;-56
2023/04/01 07:53:56;;;;;;;25.23;19.63;;;;;;;8.90;100.00;99552.94;5061350;28;20063;-57
2023/04/01 07:56:41;;;;;;;26.17;18.52;;;;;;;8.90;100.00;99547.63;5053837;28;20174;-57
2023/04/01 07:59:21;;;;;;;29.95;19.27;;;;;;;8.94;100.00;99554.31;5060832;28;20068;-57
2023/04/01 08:01:49;;;;;;;23.58;18.38;;;;;;;8.95;100.00;99558.66;5075998;28;20079;-57
2023/04/01 08:04:42;;;;;;;25.75;19.10;;;;;;;8.99;100.00;99567.16;5052813;28;20032;-57
2023/04/01 08:07:16;;;;;;;23.55;19.20;;;;;;;8.97;100.00;99569.09;5055525;28;20024;-56
2023/04/01 08:10:03;;;;;;;27.80;18.63;;;;;;;9.03;100.00;99569.38;5055484;28;20029;-57
2023/04/01 08:12:55;;;;;;;25.10;17.42;;;;;;;9.09;100.00;99570.63;5056067;28;20027;-57
2023/04/01 08:15:46;;;;;;;24.00;18.08;;;;;;;9.17;100.00;99577.88;5057358;28;20074;-57
2023/04/01 08:18:39;;;;;;;27.77;19.67;;;;;;;9.24;100.00;99579.00;5063603;28;20107;-57
2023/04/01 08:21:14;;;;;;;24.95;19.77;;;;;;;9.29;100.00;99586.53;5067719;28;20025;-57
2023/04/01 08:23:47;;;;;;;30.85;21.05;;;;;;;9.33;100.00;99586.13;5067601;28;20021;-56
2023/04/01 08:26:37;;;;;;;25.20;20.13;;;;;;;9.38;100.00;99586.53;5069758;28;20366;-56
2023/04/01 08:29:15;;;;;;;27.75;21.15;;;;;;;9.42;100.00;99600.31;5062690;28;20083;-57
2023/04/01 08:31:48;;;;;;;25.58;18.50;;;;;;;9.45;100.00;99592.09;5058679;28;20059;-56
2023/04/01 08:34:20;;;;;;;27.27;19.02;;;;;;;9.44;100.00;99596.56;5071813;28;20028;-57
2023/04/01 08:36:54;;;;;;;26.85;18.88;;;;;;;9.46;100.00;99599.09;5067062;28;20067;-57
2023/04/01 08:39:34;;;;;;;29.45;17.77;;;;;;;9.44;100.00;99601.00;5051900;28;20046;-57
2023/04/01 08:42:05;;;;;;;26.20;17.92;;;;;;;9.47;100.00;99597.25;5069525;28;20033;-57
2023/04/01 08:44:51;;;;;;;24.00;17.52;;;;;;;9.52;100.00;99603.78;5068007;28;20033;-57
2023/04/01 08:47:30;;;;;;;27.00;17.90;;;;;;;9.52;100.00;99619.69;5054361;28;20043;-57
2023/04/01 08:50:18;;;;;;;22.20;16.55;;;;;;;9.54;100.00;99616.91;5061956;28;20033;-57
2023/04/01 08:53:05;;;;;;;24.40;16.37;;;;;;;9.58;100.00;99624.44;5059787;28;20060;-57
2023/04/01 08:55:45;;;;;;;26.50;16.50;;;;;;;9.61;100.00;99629.47;5068185;28;20040;-57
2023/04/01 08:58:52;;;;;;;21.95;16.63;;;;;;;9.69;100.00;99627.91;5069561;28;20090;-56
2023/04/01 09:01:30;;;;;;;20.70;16.33;;;;;;;9.74;100.00;99634.50;5051448;28;20543;-57
2023/04/01 09:04:22;;;;;;;20.65;16.13;;;;;;;9.79;100.00;99634.03;5065351;28;20138;-57
2023/04/01 09:07:12;;;;;;;19.25;14.93;;;;;;;9.81;100.00;99634.75;5054027;28;20070;-58
2023/04/01 09:09:53;;;;;;;19.13;13.43;;;;;;;9.86;100.00;99648.41;5063578;28;20389;-57
2023/04/01 09:12:24;;;;;;;17.80;13.18;;;;;;;9.89;100.00;99641.97;5062301;28;20028;-57
2023/04/01 09:15:33;;;;;;;19.67;14.07;;;;;;;9.96;100.00;99659.84;5059464;28;20119;-57
2023/04/01 09:18:42;;;;;;;21.05;13.88;;;;;;;9.96;100.00;99654.53;5061761;28;20025;-57
2023/04/01 09:21:23;;;;;;;16.17;12.25;;;;;;;9.95;100.00;99663.47;5065632;28;20073;-57
2023/04/01 09:24:07;;;;;;;16.23;12.38;;;;;;;9.96;100.00;99664.31;5065503;28;20111;-58
2023/04/01 09:26:55;;;;;;;12.30;10.98;;;;;;;9.93;100.00;99662.78;5065982;28;20028;-57
2023/04/01 09:29:39;;;;;;;13.50;12.10;;;;;;;9.95;100.00;99665.28;5060439;28;20119;-58
2023/04/01 09:32:07;;;;;;;15.90;11.35;;;;;;;9.97;100.00;99679.25;5065391;28;20056;-59
2023/04/01 09:35:06;;;;;;;13.40;11.25;;;;;;;10.00;100.00;99676.31;5053686;28;20035;-58
2023/04/01 09:37:34;;;;;;;;;;;;;;;10.05;100.00;99674.06;5061433;28;20497;-56
2023/04/01 09:40:20;;;;;;;11.50;9.77;;;;;;;9.95;100.00;99683.84;5062078;28;20371;-56
2023/04/01 09:42:59;;;;;;;10.40;9.10;;;;;;;9.91;100.00;99679.78;5062174;28;20032;-58
2023/04/01 09:46:03;;;;;;;10.00;9.00;;;;;;;9.91;100.00;99688.63;5055619;28;20036;-58
2023/04/01 09:48:55;;;;;;;9.73;8.80;;;;;;;9.90;100.00;99694.06;5054355;28;20049;-57
2023/04/01 09:51:29;;;;;;;11.32;8.50;;;;;;;9.88;100.00;99686.25;5058144;28;20033;-58
2023/04/01 09:54:04;;;;;;;10.15;8.60;;;;;;;9.90;100.00;99697.53;5052432;28;20441;-56
2023/04/01 09:57:10;;;;;;;11.15;9.20;;;;;;;9.95;100.00;99697.13;5067439;28;20430;-58
2023/04/01 10:00:09;;;;;;;10.07;8.45;;;;;;;9.91;100.00;99701.00;5067552;28;20087;-56
2023/04/01 10:02:53;;;;;;;11.10;9.32;;;;;;;9.94;100.00;99706.03;5060470;28;20025;-56
2023/04/01 10:05:38;;;;;;;11.55;8.80;;;;;;;9.95;100.00;99702.41;5065655;28;20539;-56
2023/04/01 10:08:19;;;;;;;13.60;9.80;;;;;;;9.96;100.00;99706.75;5059773;28;20520;-58
2023/04/01 10:11:16;;;;;;;13.13;10.27;;;;;;;9.90;100.00;99712.63;5065077;28;20355;-58
2023/04/01 10:14:00;;;;;;;11.68;9.60;;;;;;;9.88;100.00;99717.25;5042311;28;20045;-58
2023/04/01 10:16:41;;;;;;;11.73;9.88;;;;;;;9.86;100.00;99722.69;5062640;28;20039;-54
2023/04/01 10:19:25;;;;;;;12.75;10.27;;;;;;;9.89;100.00;99724.19;5061814;28;20048;-57
2023/04/01 10:22:15;;;;;;;12.90;10.57;;;;;;;9.87;100.00;99726.16;5060885;28;20040;-58
2023/04/01 10:24:49;;;;;;;13.75;11.00;;;;;;;9.85;100.00;99733.44;5057027;28;20068;-56
2023/04/01 10:27:39;;;;;;;11.85;10.65;;;;;;;9.81;100.00;99730.22;5059225;28;20413;-56
2023/04/01 10:30:26;;;;;;;15.10;12.05;;;;;;;9.76;100.00;99735.94;5064246;28;20090;-56
2023/04/01 10:33:17;;;;;;;14.48;12.77;;;;;;;9.78;100.00;99733.16;5065787;28;20040;-54
2023/04/01 10:36:16;;;;;;;14.60;12.60;;;;;;;9.74;100.00;99737.03;5065836;28;20767;-53
2023/04/01 10:39:07;;;;;;;15.77;12.57;;;;;;;9.72;100.00;99739.84;5056708;28;20040;-55
2023/04/01 10:41:43;;;;;;;14.68;12.88;;;;;;;9.70;100.00;99741.78;5060674;28;20120;-57
2023/04/01 10:44:31;;;;;;;16.20;13.25;;;;;;;9.71;100.00;99739.97;5059534;28;20045;-58
2023/04/01 10:47:33;;;;;;;17.58;13.80;;;;;;;9.73;100.00;99738.03;5063551;28;20116;-55
2023/04/01 10:50:26;;;;;;;17.00;13.85;;;;;;;9.75;100.00;99747.50;5057139;28;20122;-56
2023/04/01 10:53:03;;;;;;;17.10;14.10;;;;;;;9.76;100.00;99751.03;5055715;28;20033;-56
2023/04/01 10:55:32;;;;;;;17.13;14.32;;;;;;;9.78;100.00;99749.06;5060265;28;20049;-54
2023/04/01 10:58:31;;;;;;;17.10;13.95;;;;;;;9.78;100.00;99759.66;5059630;28;20109;-54
2023/04/01 11:01:27;;;;;;;19.13;14.27;;;;;;;9.76;100.00;99754.50;5069326;28;20032;-57
2023/04/01 11:04:18;;;;;;;16.63;14.00;;;;;;;9.76;100.00;99758.97;5057960;28;20053;-56
2023/04/01 11:07:15;;;;;;;16.00;14.30;;;;;;;9.74;100.00;99760.91;5055558;28;20075;-57
2023/04/01 11:10:22;;;;;;;21.17;14.75;;;;;;;9.74;100.00;99766.22;5065856;28;20223;-57
2023/04/01 11:13:03;;;;;;;18.77;15.20;;;;;;;9.74;100.00;99763.56;5063503;28;20024;-57
2023/04/01 11:15:54;;;;;;;19.30;14.57;;;;;;;9.76;100.00;99773.06;5064886;28;21460;-58
2023/04/01 11:18:57;;;;;;;17.55;13.90;;;;;;;9.76;100.00;99770.41;5055031;28;20112;-54
2023/04/01 11:21:55;;;;;;;17.08;13.65;;;;;;;9.75;100.00;99776.69;5056451;28;20052;-56
2023/04/01 11:24:46;;;;;;;19.97;14.20;;;;;;;9.79;100.00;99774.59;5070844;28;20144;-56
2023/04/01 11:27:51;;;;;;;16.17;13.77;;;;;;;9.80;100.00;99781.56;5054327;28;20342;-54
2023/04/01 11:30:28;;;;;;;14.57;12.82;;;;;;;9.77;100.00;99780.03;5060034;28;20053;-57
2023/04/01 11:33:02;;;;;;;13.55;12.18;;;;;;;9.78;100.00;99791.50;5063159;28;20043;-57
2023/04/01 11:36:00;;;;;;;15.63;13.00;;;;;;;9.80;100.00;99793.00;5061489;28;20063;-57
2023/04/01 11:38:34;;;;;;;16.08;13.25;;;;;;;9.81;100.00;99791.22;5058127;28;20036;-56
2023/04/01 11:41:25;;;;;;;14.48;12.98;;;;;;;9.87;100.00;99795.13;5064258;28;20123;-57
2023/04/01 11:44:17;;;;;;;16.48;13.82;;;;;;;9.91;100.00;99789.41;5059438;28;20083;-57
2023/04/01 11:47:01;;;;;;;17.90;13.93;;;;;;;9.95;100.00;99809.34;5063677;28;20052;-56
2023/04/01 11:49:46;;;;;;;16.63;12.82;;;;;;;9.98;100.00;99810.91;5056740;28;20186;-57
2023/04/01 11:52:21;;;;;;;16.38;13.18;;;;;;;9.99;100.00;99816.06;5056173;28;20048;-57
2023/04/01 11:54:52;;;;;;;12.60;11.07;;;;;;;9.96;100.00;99815.50;5057251;28;20076;-55
2023/04/01 11:57:43;;;;;;;13.23;11.02;;;;;;;9.97;100.00;99811.88;5053810;28;20059;-58
2023/04/01 12:00:18;;;;;;;13.80;10.90;;;;;;;9.96;100.00;99826.13;5050447;28;20064;-57
2023/04/01 12:03:27;;;;;;;13.90;11.48;;;;;;;9.96;100.00;99816.34;5057111;28;20040;-57